createdAt,value
2022-08-12T00:01:12.419Z,20.81
2022-08-12T00:03:58.242Z,20.73
2022-08-12T00:06:45.904Z,20.58
2022-08-12T00:09:32.286Z,20.67
2022-08-12T00:12:18.446Z,20.68
2022-08-12T00:15:04.705Z,20.67
2022-08-12T00:17:50.820Z,20.61
2022-08-12T00:20:36.835Z,20.61
2022-08-12T00:23:22.727Z,20.55
2022-08-12T00:26:21.784Z,20.42
2022-08-12T00:29:14.074Z,20.46
2022-08-12T00:32:01.412Z,20.46
2022-08-12T00:34:51.995Z,20.42
2022-08-12T00:37:40.406Z,20.42
2022-08-12T00:40:29.994Z,20.31
2022-08-12T00:42:58.378Z,20.35
2022-08-12T00:45:27.057Z,20.38
2022-08-12T00:47:57.298Z,20.34
2022-08-12T00:50:27.624Z,20.26
2022-08-12T00:52:54.848Z,20.17
2022-08-12T00:55:22.150Z,20.13
2022-08-12T00:57:50.566Z,20.17
2022-08-12T01:00:24.006Z,20.12
2022-08-12T01:02:55.921Z,20.10
2022-08-12T01:05:44.035Z,20.05
2022-08-12T01:08:30.026Z,19.92
2022-08-12T01:11:16.796Z,19.80
2022-08-12T01:13:47.467Z,19.70
2022-08-12T01:16:18.380Z,19.62
2022-08-12T01:18:45.857Z,19.51
2022-08-12T01:21:31.322Z,19.58
2022-08-12T01:24:27.957Z,19.50
2022-08-12T01:26:55.044Z,19.54
2022-08-12T01:29:33.271Z,19.50
2022-08-12T01:32:06.416Z,19.44
2022-08-12T01:34:38.312Z,19.42
2022-08-12T01:37:09.315Z,19.46
2022-08-12T01:40:34.258Z,19.42
2022-08-12T01:42:50.739Z,19.46
2022-08-12T01:45:24.699Z,19.38
2022-08-12T01:48:10.005Z,19.31
2022-08-12T01:51:06.097Z,19.23
2022-08-12T01:53:53.629Z,19.17
2022-08-12T01:56:26.059Z,19.15
2022-08-12T01:59:16.193Z,19.04
2022-08-12T02:01:45.142Z,19.05
2022-08-12T02:04:53.811Z,19.00
2022-08-12T02:08:03.276Z,18.94
2022-08-12T02:11:24.689Z,19.03
2022-08-12T02:13:55.290Z,19.08
2022-08-12T02:16:59.988Z,19.07
2022-08-12T02:19:55.601Z,19.13
2022-08-12T02:22:30.446Z,19.20
2022-08-12T02:25:21.726Z,19.25
2022-08-12T02:27:52.322Z,19.20
2022-08-12T02:30:22.287Z,19.18
2022-08-12T02:32:52.581Z,19.14
2022-08-12T02:35:25.621Z,19.11
2022-08-12T02:37:58.894Z,19.13
2022-08-12T02:40:29.242Z,19.10
2022-08-12T02:43:01.407Z,19.08
2022-08-12T02:46:04.011Z,19.05
2022-08-12T02:48:46.831Z,19.03
2022-08-12T02:51:40.835Z,19.03
2022-08-12T02:54:08.479Z,18.95
2022-08-12T02:56:40.718Z,18.90
2022-08-12T02:59:16.693Z,18.93
2022-08-12T03:01:50.850Z,18.89
2022-08-12T03:04:24.557Z,18.81
2022-08-12T03:07:14.876Z,18.90
2022-08-12T03:10:04.368Z,18.90
2022-08-12T03:12:42.817Z,18.80
2022-08-12T03:15:19.106Z,18.72
2022-08-12T03:18:26.905Z,18.68
2022-08-12T03:20:48.775Z,18.69
2022-08-12T03:23:19.434Z,18.59
2022-08-12T03:25:58.972Z,18.60
2022-08-12T03:28:47.874Z,18.39
2022-08-12T03:31:33.776Z,18.34
2022-08-12T03:34:03.248Z,18.23
2022-08-12T03:36:36.120Z,18.22
2022-08-12T03:39:36.394Z,18.14
2022-08-12T03:42:35.567Z,18.14
2022-08-12T03:45:53.025Z,18.17
2022-08-12T03:48:40.027Z,18.15
2022-08-12T03:51:44.461Z,18.16
2022-08-12T03:54:31.853Z,18.17
2022-08-12T03:57:17.353Z,18.18
2022-08-12T04:00:03.293Z,18.19
2022-08-12T04:02:31.085Z,18.21
2022-08-12T04:04:58.897Z,18.16
2022-08-12T04:07:27.695Z,18.15
2022-08-12T04:09:55.802Z,18.16
2022-08-12T04:12:46.463Z,18.16
2022-08-12T04:15:15.156Z,18.19
2022-08-12T04:18:06.913Z,18.21
2022-08-12T04:20:30.853Z,18.17
2022-08-12T04:22:58.581Z,18.17
2022-08-12T04:25:28.359Z,18.21
2022-08-12T04:27:55.439Z,18.21
2022-08-12T04:30:32.914Z,18.19
2022-08-12T04:33:00.745Z,18.14
2022-08-12T04:35:28.744Z,18.17
2022-08-12T04:37:58.094Z,18.36
2022-08-12T04:40:31.290Z,18.35
2022-08-12T04:43:01.856Z,18.36
2022-08-12T04:45:31.099Z,18.49
2022-08-12T04:47:58.426Z,18.51
2022-08-12T04:50:33.846Z,18.50
2022-08-12T04:53:03.848Z,18.45
2022-08-12T04:55:31.780Z,18.52
2022-08-12T04:58:00.658Z,18.51
2022-08-12T05:00:27.799Z,18.54
2022-08-12T05:02:55.372Z,18.58
2022-08-12T05:05:24.361Z,18.61
2022-08-12T05:07:54.789Z,18.61
2022-08-12T05:10:33.180Z,18.62
2022-08-12T05:13:09.224Z,18.60
2022-08-12T05:16:03.607Z,18.61
2022-08-12T05:18:26.008Z,18.59
2022-08-12T05:20:59.721Z,18.64
2022-08-12T05:23:27.904Z,18.69
2022-08-12T05:25:59.244Z,18.69
2022-08-12T05:28:27.610Z,18.78
2022-08-12T05:30:56.045Z,18.86
2022-08-12T05:33:33.303Z,18.92
2022-08-12T05:36:00.371Z,19.02
2022-08-12T05:38:46.273Z,19.05
2022-08-12T05:41:35.351Z,19.16
2022-08-12T05:44:05.781Z,19.22
2022-08-12T05:46:34.004Z,19.27
2022-08-12T05:49:02.210Z,19.33
2022-08-12T05:51:41.309Z,19.42
2022-08-12T05:54:11.299Z,19.45
2022-08-12T05:56:40.747Z,19.52
2022-08-12T05:59:09.389Z,19.60
2022-08-12T06:02:10.114Z,19.73
2022-08-12T06:04:24.729Z,19.81
2022-08-12T06:06:53.809Z,19.82
2022-08-12T06:09:22.709Z,19.95
2022-08-12T06:12:05.831Z,20.04
2022-08-12T06:14:39.349Z,20.13
2022-08-12T06:17:08.910Z,20.15
2022-08-12T06:20:26.336Z,20.28
2022-08-12T06:22:23.395Z,20.33
2022-08-12T06:24:53.562Z,20.41
2022-08-12T06:27:21.771Z,20.44
2022-08-12T06:30:09.489Z,20.49
2022-08-12T06:32:42.838Z,20.61
2022-08-12T06:35:48.954Z,20.74
2022-08-12T06:38:16.432Z,20.81
2022-08-12T06:41:03.612Z,20.94
2022-08-12T06:43:31.103Z,21.06
2022-08-12T06:46:25.760Z,21.14
2022-08-12T06:48:59.041Z,21.21
2022-08-12T06:51:32.782Z,21.35
2022-08-12T06:54:00.882Z,21.45
2022-08-12T06:56:52.613Z,21.53
2022-08-12T06:59:16.049Z,21.60
2022-08-12T07:01:50.956Z,21.62
2022-08-12T07:04:37.368Z,21.79
2022-08-12T07:07:10.811Z,21.91
2022-08-12T07:10:03.823Z,22.02
2022-08-12T07:12:28.342Z,21.92
2022-08-12T07:14:57.708Z,22.05
2022-08-12T07:17:26.038Z,22.22
2022-08-12T07:19:53.930Z,22.32
2022-08-12T07:22:23.539Z,22.42
2022-08-12T07:25:10.529Z,22.54
2022-08-12T07:27:42.808Z,22.64
2022-08-12T07:30:11.080Z,22.70
2022-08-12T07:32:38.602Z,22.80
2022-08-12T07:35:06.134Z,22.86
2022-08-12T07:37:33.871Z,22.96
2022-08-12T07:40:01.428Z,23.05
2022-08-12T07:42:29.738Z,23.08
2022-08-12T07:44:57.174Z,23.15
2022-08-12T07:47:27.579Z,23.21
2022-08-12T07:50:05.289Z,23.29
2022-08-12T07:52:38.722Z,23.50
2022-08-12T07:55:06.520Z,23.49
2022-08-12T07:57:33.850Z,23.55
2022-08-12T08:00:06.059Z,23.56
2022-08-12T08:02:34.050Z,23.76
2022-08-12T08:05:01.615Z,23.91
2022-08-12T08:07:30.817Z,24.04
2022-08-12T08:10:00.683Z,24.23
2022-08-12T08:12:48.059Z,24.34
2022-08-12T08:15:16.095Z,24.43
2022-08-12T08:18:04.245Z,24.35
2022-08-12T08:20:38.142Z,24.53
2022-08-12T08:23:11.379Z,24.75
2022-08-12T08:25:39.006Z,24.82
2022-08-12T08:28:10.003Z,25.06
2022-08-12T08:30:40.067Z,25.18
2022-08-12T08:33:24.547Z,25.19
2022-08-12T08:35:59.528Z,25.40
2022-08-12T08:38:32.717Z,25.37
2022-08-12T08:42:14.276Z,25.41
2022-08-12T08:44:16.739Z,25.65
2022-08-12T08:46:44.793Z,25.73
2022-08-12T08:49:12.891Z,25.84
2022-08-12T08:51:40.476Z,25.82
2022-08-12T08:54:08.998Z,25.97
2022-08-12T08:56:50.196Z,26.10
2022-08-12T08:59:19.247Z,26.16
2022-08-12T09:01:47.943Z,26.35
2022-08-12T09:05:08.389Z,26.43
2022-08-12T09:07:14.956Z,26.45
2022-08-12T09:10:02.501Z,26.71
2022-08-12T09:12:54.597Z,26.75
2022-08-12T09:15:34.919Z,26.93
2022-08-12T09:18:15.708Z,27.03
2022-08-12T09:20:43.477Z,27.03
2022-08-12T09:23:59.576Z,27.06
2022-08-12T09:26:04.370Z,27.07
2022-08-12T09:28:33.724Z,27.16
2022-08-12T09:31:01.438Z,27.38
2022-08-12T09:34:27.410Z,27.52
2022-08-12T09:36:30.779Z,27.74
2022-08-12T09:40:02.543Z,27.79
2022-08-12T09:42:42.948Z,27.93
2022-08-12T09:45:24.457Z,28.10
2022-08-12T09:48:10.367Z,28.11
2022-08-12T09:50:52.171Z,28.17
2022-08-12T09:53:29.231Z,28.33
2022-08-12T09:56:57.034Z,28.53
2022-08-12T09:59:00.676Z,28.42
2022-08-12T10:02:43.341Z,28.50
2022-08-12T10:04:24.157Z,28.47
2022-08-12T10:06:54.395Z,28.77
2022-08-12T10:09:28.701Z,28.93
2022-08-12T10:12:31.487Z,29.10
2022-08-12T10:15:02.210Z,29.13
2022-08-12T10:17:29.869Z,29.10
2022-08-12T10:19:59.945Z,29.07
2022-08-12T10:22:36.884Z,29.20
2022-08-12T10:26:18.438Z,29.49
2022-08-12T10:28:36.533Z,29.77
2022-08-12T10:31:06.265Z,30.38
2022-08-12T10:33:54.059Z,30.93
2022-08-12T10:36:40.064Z,31.45
2022-08-12T10:40:01.310Z,31.96
2022-08-12T10:42:29.241Z,32.20
2022-08-12T10:45:03.818Z,32.42
2022-08-12T10:48:07.697Z,32.82
2022-08-12T10:50:36.016Z,32.86
2022-08-12T10:53:19.636Z,32.99
2022-08-12T10:55:50.038Z,33.08
2022-08-12T10:58:27.921Z,32.90
2022-08-12T11:01:25.932Z,32.95
2022-08-12T11:04:28.595Z,32.91
2022-08-12T11:07:10.018Z,33.21
2022-08-12T11:09:54.401Z,33.40
2022-08-12T11:12:57.874Z,33.88
2022-08-12T11:15:19.162Z,34.35
2022-08-12T11:17:53.973Z,34.57
2022-08-12T11:20:28.988Z,34.68
2022-08-12T11:23:00.032Z,34.70
2022-08-12T11:25:55.460Z,35.25
2022-08-12T11:28:33.407Z,35.20
2022-08-12T11:31:25.186Z,35.26
2022-08-12T11:34:05.100Z,35.45
2022-08-12T11:36:53.524Z,36.08
2022-08-12T11:39:28.445Z,36.32
2022-08-12T11:42:08.075Z,36.37
2022-08-12T11:44:43.412Z,36.79
2022-08-12T11:47:11.749Z,37.01
2022-08-12T11:49:45.736Z,36.63
2022-08-12T11:52:55.092Z,37.18
2022-08-12T11:55:07.456Z,37.71
2022-08-12T11:58:16.275Z,38.07
2022-08-12T12:06:08.987Z,38.77
2022-08-12T12:08:43.205Z,39.02
2022-08-12T12:11:14.828Z,38.40
2022-08-12T12:14:08.032Z,37.82
2022-08-12T12:20:21.475Z,38.00
2022-08-12T12:22:54.914Z,38.67
2022-08-12T12:25:59.243Z,38.74
2022-08-12T12:28:09.285Z,38.41
2022-08-12T12:30:56.584Z,38.82
2022-08-12T12:33:27.024Z,38.49
2022-08-12T12:37:01.288Z,38.39
2022-08-12T12:39:28.931Z,38.43
2022-08-12T12:42:45.313Z,38.89
2022-08-12T12:44:53.738Z,39.96
2022-08-12T12:47:30.155Z,40.13
2022-08-12T12:49:57.426Z,39.35
2022-08-12T12:52:27.093Z,39.52
2022-08-12T12:54:58.707Z,39.70
2022-08-12T12:57:59.117Z,38.89
2022-08-12T13:00:18.090Z,39.92
2022-08-12T13:02:53.885Z,40.07
2022-08-12T13:05:27.836Z,39.76
2022-08-12T13:08:01.684Z,39.89
2022-08-12T13:10:36.935Z,39.47
2022-08-12T13:14:08.132Z,39.16
2022-08-12T13:15:59.359Z,39.69
2022-08-12T13:18:31.488Z,39.23
2022-08-12T13:20:59.650Z,39.44
2022-08-12T13:23:37.077Z,39.93
2022-08-12T13:26:05.569Z,39.98
2022-08-12T13:28:32.919Z,40.49
2022-08-12T13:31:01.100Z,40.54
2022-08-12T13:34:33.696Z,39.88
2022-08-12T13:36:21.658Z,39.90
2022-08-12T13:38:54.155Z,40.82
2022-08-12T13:44:35.499Z,41.70
2022-08-12T13:47:20.050Z,41.69
2022-08-12T13:49:54.893Z,41.98
2022-08-12T13:53:06.307Z,41.55
2022-08-12T13:55:59.783Z,41.80
2022-08-12T13:58:34.599Z,41.90
2022-08-12T14:01:09.009Z,42.53
2022-08-12T14:03:49.785Z,42.50
2022-08-12T14:07:48.636Z,41.36
2022-08-12T14:10:50.843Z,41.33
2022-08-12T14:14:05.211Z,42.79
2022-08-12T14:16:37.450Z,42.55
2022-08-12T14:19:24.512Z,42.69
2022-08-12T14:21:59.728Z,43.59
2022-08-12T14:24:35.882Z,43.63
2022-08-12T14:28:03.532Z,42.51
2022-08-12T14:30:28.782Z,43.17
2022-08-12T14:33:00.181Z,43.58
2022-08-12T14:35:27.579Z,43.27
2022-08-12T14:41:48.330Z,44.06
2022-08-12T14:44:59.186Z,43.99
2022-08-12T14:47:07.613Z,43.90
2022-08-12T14:50:41.647Z,43.87
2022-08-12T14:53:13.431Z,43.94
2022-08-12T14:57:58.957Z,43.89
2022-08-12T15:00:50.627Z,43.01
2022-08-12T15:03:23.231Z,43.59
2022-08-12T15:06:05.451Z,43.03
2022-08-12T15:08:38.842Z,43.99
2022-08-12T15:11:14.682Z,43.57
2022-08-12T15:13:45.721Z,42.52
2022-08-12T15:16:13.394Z,42.39
2022-08-12T15:18:55.470Z,41.76
2022-08-12T15:22:37.103Z,42.24
2022-08-12T15:24:17.384Z,41.38
2022-08-12T15:26:44.998Z,40.73
2022-08-12T15:29:13.920Z,40.23
2022-08-12T15:32:00.171Z,39.05
2022-08-12T15:34:30.843Z,39.01
2022-08-12T15:36:58.157Z,39.20
2022-08-12T15:39:27.657Z,39.45
2022-08-12T15:41:55.505Z,40.17
2022-08-12T15:44:41.624Z,40.85
2022-08-12T15:47:10.341Z,40.81
2022-08-12T15:49:54.547Z,40.87
2022-08-12T15:52:28.756Z,41.15
2022-08-12T15:54:58.521Z,41.95
2022-08-12T15:57:27.442Z,42.59
2022-08-12T16:00:06.849Z,42.51
2022-08-12T16:02:50.223Z,41.93
2022-08-12T16:06:12.302Z,41.41
2022-08-12T16:08:17.402Z,42.16
2022-08-12T16:10:46.175Z,41.88
2022-08-12T16:13:32.516Z,41.35
2022-08-12T16:16:22.539Z,40.86
2022-08-12T16:18:59.484Z,40.40
2022-08-12T16:21:52.422Z,38.61
2022-08-12T16:24:18.728Z,37.92
2022-08-12T16:26:51.304Z,37.21
2022-08-12T16:29:52.655Z,36.69
2022-08-12T16:32:19.846Z,36.11
2022-08-12T16:34:56.058Z,35.61
2022-08-12T16:37:32.600Z,34.78
2022-08-12T16:40:06.084Z,34.48
2022-08-12T16:42:42.191Z,33.81
2022-08-12T16:46:03.999Z,33.66
2022-08-12T16:48:33.996Z,33.62
2022-08-12T16:51:09.398Z,33.26
2022-08-12T16:53:44.396Z,32.83
2022-08-12T16:56:15.647Z,32.39
2022-08-12T16:58:44.433Z,32.49
2022-08-12T17:01:15.759Z,32.33
2022-08-12T17:03:52.199Z,32.03
2022-08-12T17:06:27.804Z,31.92
2022-08-12T17:09:03.349Z,31.74
2022-08-12T17:11:38.828Z,31.64
2022-08-12T17:14:09.269Z,31.63
2022-08-12T17:16:37.478Z,31.50
2022-08-12T17:19:09.158Z,31.46
2022-08-12T17:21:40.076Z,31.28
2022-08-12T17:24:11.025Z,31.30
2022-08-12T17:26:45.458Z,31.32
2022-08-12T17:29:24.379Z,31.08
2022-08-12T17:32:08.790Z,31.01
2022-08-12T17:34:55.449Z,30.96
2022-08-12T17:37:22.965Z,30.67
2022-08-12T17:40:12.355Z,30.65
2022-08-12T17:42:47.748Z,30.39
2022-08-12T17:45:19.654Z,30.46
2022-08-12T17:48:01.001Z,30.42
2022-08-12T17:50:32.072Z,30.49
2022-08-12T17:53:02.712Z,30.32
2022-08-12T17:55:43.858Z,30.22
2022-08-12T17:58:17.496Z,30.08
2022-08-12T18:00:45.820Z,30.06
2022-08-12T18:04:04.843Z,29.81
2022-08-12T18:06:14.308Z,29.57
2022-08-12T18:08:54.279Z,29.37
2022-08-12T18:12:06.374Z,29.34
2022-08-12T18:14:31.954Z,29.29
2022-08-12T18:17:02.367Z,29.18
2022-08-12T18:20:03.619Z,29.16
2022-08-12T18:22:22.055Z,29.01
2022-08-12T18:25:02.707Z,29.02
2022-08-12T18:27:45.742Z,28.85
2022-08-12T18:30:29.156Z,28.90
2022-08-12T18:33:04.321Z,28.84
2022-08-12T18:35:55.732Z,28.74
2022-08-12T18:38:27.330Z,28.64
2022-08-12T18:41:21.917Z,28.66
2022-08-12T18:43:59.786Z,28.48
2022-08-12T18:46:45.900Z,28.36
2022-08-12T18:49:30.799Z,28.39
2022-08-12T18:52:04.833Z,28.34
2022-08-12T18:54:41.226Z,28.21
2022-08-12T18:57:19.407Z,28.07
2022-08-12T19:00:07.072Z,28.00
2022-08-12T19:02:40.575Z,27.60
2022-08-12T19:05:11.081Z,27.56
2022-08-12T19:07:49.455Z,27.48
2022-08-12T19:10:23.044Z,27.44
2022-08-12T19:13:15.669Z,27.40
2022-08-12T19:15:48.436Z,27.24
2022-08-12T19:18:17.112Z,27.22
2022-08-12T19:20:50.597Z,27.14
2022-08-12T19:23:21.224Z,27.02
2022-08-12T19:26:01.313Z,26.88
2022-08-12T19:28:36.003Z,26.50
2022-08-12T19:31:57.616Z,26.21
2022-08-12T19:38:02.551Z,26.24
2022-08-12T19:40:30.999Z,26.27
2022-08-12T19:43:19.495Z,26.19
2022-08-12T19:45:56.546Z,25.80
2022-08-12T19:48:28.032Z,25.79
2022-08-12T19:50:58.193Z,25.89
2022-08-12T19:53:27.753Z,25.67
2022-08-12T19:55:57.457Z,25.71
2022-08-12T19:58:25.436Z,25.67
2022-08-12T20:00:55.836Z,25.35
2022-08-12T20:03:38.997Z,25.26
2022-08-12T20:06:21.787Z,25.29
2022-08-12T20:08:56.329Z,25.13
2022-08-12T20:12:09.558Z,25.08
2022-08-12T20:14:19.453Z,24.85
2022-08-12T20:16:57.747Z,24.79
2022-08-12T20:20:16.645Z,24.64
2022-08-12T20:22:29.958Z,24.84
2022-08-12T20:25:12.029Z,24.68
2022-08-12T20:28:04.525Z,24.80
2022-08-12T20:30:37.283Z,24.83
2022-08-12T20:33:05.365Z,24.87
2022-08-12T20:35:38.936Z,24.88
2022-08-12T20:38:26.653Z,24.83
2022-08-12T20:40:55.942Z,24.82
2022-08-12T20:43:28.283Z,24.73
2022-08-12T20:45:59.610Z,24.74
2022-08-12T20:48:29.404Z,24.58
2022-08-12T20:51:04.275Z,24.52
2022-08-12T20:53:57.750Z,24.44
2022-08-12T20:56:36.935Z,24.25
2022-08-12T20:59:07.390Z,24.09
2022-08-12T21:01:46.651Z,23.95
2022-08-12T21:04:36.122Z,24.00
2022-08-12T21:07:09.242Z,24.17
2022-08-12T21:09:41.929Z,24.18
2022-08-12T21:12:28.695Z,23.93
2022-08-12T21:15:23.119Z,23.42
2022-08-12T21:18:09.806Z,23.32
2022-08-12T21:20:52.866Z,23.26
2022-08-12T21:23:21.376Z,23.29
2022-08-12T21:25:49.289Z,23.28
2022-08-12T21:28:20.986Z,23.38
2022-08-12T21:31:11.431Z,23.42
2022-08-12T21:34:06.182Z,23.29
2022-08-12T21:36:32.330Z,23.30
2022-08-12T21:39:18.097Z,23.31
2022-08-12T21:41:50.137Z,23.45
2022-08-12T21:44:24.063Z,23.51
2022-08-12T21:47:19.604Z,23.50
2022-08-12T21:50:04.390Z,23.53
2022-08-12T21:52:42.291Z,23.45
2022-08-12T21:55:18.249Z,23.39
2022-08-12T21:57:53.572Z,23.33
2022-08-12T22:00:31.733Z,23.25
2022-08-12T22:04:10.916Z,23.15
2022-08-12T22:06:31.198Z,23.12
2022-08-12T22:09:16.492Z,23.22
2022-08-12T22:11:56.187Z,23.17
2022-08-12T22:14:27.714Z,23.06
2022-08-12T22:16:57.843Z,23.05
2022-08-12T22:19:26.737Z,23.06
2022-08-12T22:21:56.089Z,23.11
2022-08-12T22:24:27.152Z,23.13
2022-08-12T22:27:22.855Z,23.13
2022-08-12T22:30:08.673Z,23.06
2022-08-12T22:32:49.727Z,23.08
2022-08-12T22:35:56.102Z,23.07
2022-08-12T22:38:24.833Z,22.94
2022-08-12T22:41:00.794Z,22.87
2022-08-12T22:43:58.945Z,22.83
2022-08-12T22:46:33.021Z,22.76
2022-08-12T22:49:01.281Z,22.72
2022-08-12T22:51:57.742Z,22.77
2022-08-12T22:54:19.099Z,22.73
2022-08-12T22:57:04.298Z,22.69
2022-08-12T22:59:51.188Z,22.63
2022-08-12T23:02:28.861Z,22.54
2022-08-12T23:04:59.960Z,22.49
2022-08-12T23:07:36.044Z,22.43
2022-08-12T23:10:15.700Z,22.46
2022-08-12T23:13:20.841Z,22.39
2022-08-12T23:15:54.964Z,22.34
2022-08-12T23:18:22.527Z,22.33
2022-08-12T23:21:00.389Z,22.28
2022-08-12T23:23:28.901Z,22.21
2022-08-12T23:26:09.104Z,22.21
2022-08-12T23:28:54.833Z,22.19
2022-08-12T23:32:02.819Z,22.12
2022-08-12T23:34:12.925Z,22.09
2022-08-12T23:36:44.101Z,22.07
2022-08-12T23:40:13.977Z,22.04
2022-08-12T23:42:17.989Z,22.02
2022-08-12T23:44:53.384Z,22.03
2022-08-12T23:47:23.672Z,21.96
2022-08-12T23:49:58.129Z,21.91
2022-08-12T23:52:36.959Z,21.88
2022-08-12T23:55:24.149Z,21.90
2022-08-12T23:58:21.854Z,21.86
